Bay City, MI

12:03 AM EDT on September 03, 2014 (GMT -0400)
Delta College | Change Station
CLOSE
Current Station
Personal Weather Station
Location: University Center, MI
Elevation: 637 ft
Nearby Weather Stations

Elev 637 ft 43.56 °N, 83.99 °W | Updated 1 minute ago

Clear
Clear
61.4 °F
Feels Like 61.4 °F
N
0.0
Wind Variable Wind from WNW
Gusts 0.0 mph

Today
High -- | Low -- °F
--% Chance of Precip.
Yesterday
High -- | Low -- °F
Precip. -- in
7:01 AM 8:07 PM
First Quarter, 58% visible
Pressure 29.94 in
Visibility 10.0 miles
Clouds Clear
Dew Point 58 °F
Humidity 89%
Rainfall 0.00 in
Snow Depth Not available.
UV 0 out of 12
Pollen 7.60 out of 12
Ozone Good
PM2.5 Good
Flu Activity Not available.
METAR KMBS 030353Z 22005KT 10SM CLR 17/14 A2994 RMK AO2 SLP137 T01720144

More Conditions Fewer Conditions

Pressure 29.94 in
Visibility 10.0 miles
Clouds Clear
Dew Point 58 °F
Humidity 89%
Rainfall 0.00 in
Snow Depth Not available.
UV 0 out of 12
Pollen 7.60 out of 12
Ozone Good
PM2.5 Good
Flu Activity Not available.
METAR KMBS 030353Z 22005KT 10SM CLR 17/14 A2994 RMK AO2 SLP137 T01720144

More Conditions Fewer Conditions

10-Day Weather Forecast

Almanac

Astronomy

Sep. 03, 2014 Rise Set
Actual Time 7:01 AM EDT 8:07 PM EDT
Civil Twilight 6:32 AM EDT 8:36 PM EDT
Nautical Twilight 5:57 AM EDT 9:11 PM EDT
Astronomical Twilight 5:19 AM EDT 9:48 PM EDT
Moon 3:54 PM EDT 12:49 AM EDT
Length of Visible Light 14h 04m
Length of Day
13h 05m
Tomorrow will be 2m 54s shorter.
First Quarter, 58% of the Moon is Illuminated
Today
First Quarter
Sep 8
Full
Sep 15
Last Quarter
Sep 24
New
Oct 1
First Quarter

Yesterday's Extremes

State Highs State Lows

Community

WunderPhotos

Upload Photos

1,749,866 photos uploaded!

Nearby

Air Quality

  Air Quality AQ Index Pollutant
Yesterday Good
PM2.5
Yesterday Good
OZONE
Current Good
PM2.5
Current Good
OZONE
Tuesday Good
OZONE
Tuesday Good
PM2.5
Wednesday Good
OZONE
Wednesday Good
PM2.5
Thursday Good
OZONE
Thursday Good
PM2.5
Friday Good
OZONE
Friday Good
PM2.5
Saturday Good
OZONE
Saturday Good
PM2.5
Sunday Good
OZONE
Sunday Good
PM2.5

Snow Depth

Station Depth Elevation
No new snow has been reported.

Earthquake Activity

City Distance Mag. Time & Date
No recent earthquake activity has been reported nearby.
Minimum magnitude displayed is 2.5.

Coastal Water Temperatures

Place Temperature
Harbor Beach, MI 66.0 °F

Nearby Weather Stations